sensor_id;sensor_type;location;lat;lon;timestamp;pressure;altitude;pressure_sealevel;temperature;humidity
62124;BME280;48110;47.532;19.078;2023-07-30T00:01:50;99915.22;;;21.98;100.00
62124;BME280;48110;47.532;19.078;2023-07-30T00:04:53;99913.06;;;21.95;100.00
62124;BME280;48110;47.532;19.078;2023-07-30T00:07:56;99912.72;;;21.91;100.00
62124;BME280;48110;47.532;19.078;2023-07-30T00:10:59;99912.72;;;21.91;100.00
62124;BME280;48110;47.532;19.078;2023-07-30T00:14:02;99915.13;;;21.88;100.00
62124;BME280;48110;47.532;19.078;2023-07-30T00:17:05;99911.41;;;21.94;100.00
62124;BME280;48110;47.532;19.078;2023-07-30T00:20:08;99917.25;;;21.86;100.00
62124;BME280;48110;47.532;19.078;2023-07-30T00:23:11;99926.63;;;21.78;100.00
62124;BME280;48110;47.532;19.078;2023-07-30T00:26:14;99922.53;;;21.76;100.00
62124;BME280;48110;47.532;19.078;2023-07-30T00:29:17;99931.19;;;21.78;100.00
62124;BME280;48110;47.532;19.078;2023-07-30T00:32:20;99918.75;;;21.77;100.00
62124;BME280;48110;47.532;19.078;2023-07-30T00:35:24;99919.06;;;21.80;100.00
62124;BME280;48110;47.532;19.078;2023-07-30T00:38:27;99918.94;;;21.92;100.00
62124;BME280;48110;47.532;19.078;2023-07-30T00:41:31;99922.38;;;22.09;100.00
62124;BME280;48110;47.532;19.078;2023-07-30T00:44:33;99915.16;;;22.15;100.00
62124;BME280;48110;47.532;19.078;2023-07-30T00:47:37;99913.03;;;22.17;100.00
62124;BME280;48110;47.532;19.078;2023-07-30T00:50:41;99912.38;;;22.31;100.00
62124;BME280;48110;47.532;19.078;2023-07-30T00:53:44;99904.66;;;22.45;100.00
62124;BME280;48110;47.532;19.078;2023-07-30T00:56:51;99902.75;;;22.45;100.00
62124;BME280;48110;47.532;19.078;2023-07-30T00:59:56;99903.22;;;22.37;100.00
62124;BME280;48110;47.532;19.078;2023-07-30T01:02:59;99895.06;;;22.32;100.00
62124;BME280;48110;47.532;19.078;2023-07-30T01:06:02;99891.47;;;22.22;100.00
62124;BME280;48110;47.532;19.078;2023-07-30T01:09:05;99890.12;;;22.24;100.00
62124;BME280;48110;47.532;19.078;2023-07-30T01:12:08;99887.63;;;22.18;100.00
62124;BME280;48110;47.532;19.078;2023-07-30T01:15:12;99890.03;;;22.14;100.00
62124;BME280;48110;47.532;19.078;2023-07-30T01:18:15;99891.03;;;22.08;100.00
62124;BME280;48110;47.532;19.078;2023-07-30T01:21:18;99886.16;;;22.05;100.00
62124;BME280;48110;47.532;19.078;2023-07-30T01:24:20;99888.34;;;22.08;100.00
62124;BME280;48110;47.532;19.078;2023-07-30T01:27:28;99885.38;;;22.09;100.00
62124;BME280;48110;47.532;19.078;2023-07-30T01:30:41;99872.66;;;22.05;100.00
62124;BME280;48110;47.532;19.078;2023-07-30T01:33:49;99875.34;;;22.05;100.00
62124;BME280;48110;47.532;19.078;2023-07-30T01:36:55;99863.13;;;21.97;100.00
62124;BME280;48110;47.532;19.078;2023-07-30T01:39:59;99849.53;;;21.92;100.00
62124;BME280;48110;47.532;19.078;2023-07-30T01:43:02;99843.56;;;21.90;100.00
62124;BME280;48110;47.532;19.078;2023-07-30T01:46:05;99846.50;;;21.89;100.00
62124;BME280;48110;47.532;19.078;2023-07-30T01:49:08;99850.84;;;21.90;100.00
62124;BME280;48110;47.532;19.078;2023-07-30T01:52:11;99852.72;;;21.89;100.00
62124;BME280;48110;47.532;19.078;2023-07-30T01:55:14;99855.06;;;22.02;100.00
62124;BME280;48110;47.532;19.078;2023-07-30T01:58:16;99859.59;;;21.97;100.00
62124;BME280;48110;47.532;19.078;2023-07-30T02:01:19;99843.25;;;21.87;100.00
62124;BME280;48110;47.532;19.078;2023-07-30T02:04:22;99856.19;;;21.85;100.00
62124;BME280;48110;47.532;19.078;2023-07-30T02:07:25;99857.19;;;21.79;100.00
62124;BME280;48110;47.532;19.078;2023-07-30T02:10:29;99846.63;;;21.72;100.00
62124;BME280;48110;47.532;19.078;2023-07-30T02:13:32;99849.25;;;21.67;100.00
62124;BME280;48110;47.532;19.078;2023-07-30T02:16:35;99850.50;;;21.59;100.00
62124;BME280;48110;47.532;19.078;2023-07-30T02:19:37;99853.12;;;21.54;100.00
62124;BME280;48110;47.532;19.078;2023-07-30T02:22:40;99842.88;;;21.51;100.00
62124;BME280;48110;47.532;19.078;2023-07-30T02:25:43;99850.41;;;21.49;100.00
62124;BME280;48110;47.532;19.078;2023-07-30T02:28:46;99858.81;;;21.53;100.00
62124;BME280;48110;47.532;19.078;2023-07-30T02:31:48;99853.59;;;21.46;100.00
62124;BME280;48110;47.532;19.078;2023-07-30T02:34:51;99862.19;;;21.43;100.00
62124;BME280;48110;47.532;19.078;2023-07-30T02:37:54;99851.66;;;21.42;100.00
62124;BME280;48110;47.532;19.078;2023-07-30T02:40:57;99851.66;;;21.42;100.00
62124;BME280;48110;47.532;19.078;2023-07-30T02:43:59;99856.47;;;21.40;100.00
62124;BME280;48110;47.532;19.078;2023-07-30T02:47:02;99859.38;;;21.33;100.00
62124;BME280;48110;47.532;19.078;2023-07-30T02:50:05;99863.66;;;21.29;100.00
62124;BME280;48110;47.532;19.078;2023-07-30T02:53:08;99878.19;;;21.28;100.00
62124;BME280;48110;47.532;19.078;2023-07-30T02:56:11;99878.44;;;21.27;100.00
62124;BME280;48110;47.532;19.078;2023-07-30T02:59:14;99876.25;;;21.23;100.00
62124;BME280;48110;47.532;19.078;2023-07-30T03:02:16;99870.03;;;21.23;100.00
62124;BME280;48110;47.532;19.078;2023-07-30T03:05:19;99867.78;;;21.15;100.00
62124;BME280;48110;47.532;19.078;2023-07-30T03:08:22;99872.25;;;21.09;100.00
62124;BME280;48110;47.532;19.078;2023-07-30T03:11:25;99877.81;;;21.03;100.00
62124;BME280;48110;47.532;19.078;2023-07-30T03:14:29;99872.53;;;20.91;100.00
62124;BME280;48110;47.532;19.078;2023-07-30T03:17:32;99875.06;;;20.81;100.00
62124;BME280;48110;47.532;19.078;2023-07-30T03:20:35;99864.37;;;20.69;100.00
62124;BME280;48110;47.532;19.078;2023-07-30T03:23:38;99866.75;;;20.66;100.00
62124;BME280;48110;47.532;19.078;2023-07-30T03:26:40;99873.59;;;20.73;100.00
62124;BME280;48110;47.532;19.078;2023-07-30T03:29:43;99859.28;;;20.73;100.00
62124;BME280;48110;47.532;19.078;2023-07-30T03:32:46;99865.91;;;20.82;100.00
62124;BME280;48110;47.532;19.078;2023-07-30T03:35:48;99863.56;;;20.86;100.00
62124;BME280;48110;47.532;19.078;2023-07-30T03:38:51;99870.22;;;20.83;100.00
62124;BME280;48110;47.532;19.078;2023-07-30T03:41:54;99873.00;;;20.88;100.00
62124;BME280;48110;47.532;19.078;2023-07-30T03:44:57;99869.56;;;20.93;100.00
62124;BME280;48110;47.532;19.078;2023-07-30T03:47:59;99876.16;;;21.02;100.00
62124;BME280;48110;47.532;19.078;2023-07-30T03:51:03;99880.00;;;21.22;100.00
62124;BME280;48110;47.532;19.078;2023-07-30T03:54:05;99878.03;;;21.35;100.00
62124;BME280;48110;47.532;19.078;2023-07-30T03:57:08;99878.81;;;21.35;100.00
62124;BME280;48110;47.532;19.078;2023-07-30T04:00:11;99876.53;;;21.44;100.00
62124;BME280;48110;47.532;19.078;2023-07-30T04:03:15;99883.59;;;21.50;100.00
62124;BME280;48110;47.532;19.078;2023-07-30T04:06:18;99884.22;;;21.57;100.00
62124;BME280;48110;47.532;19.078;2023-07-30T04:09:21;99886.03;;;21.51;100.00
62124;BME280;48110;47.532;19.078;2023-07-30T04:12:24;99892.31;;;21.57;100.00
62124;BME280;48110;47.532;19.078;2023-07-30T04:15:27;99896.72;;;21.63;100.00
62124;BME280;48110;47.532;19.078;2023-07-30T04:18:29;99896.09;;;21.78;100.00
62124;BME280;48110;47.532;19.078;2023-07-30T04:21:32;99892.63;;;21.82;100.00
62124;BME280;48110;47.532;19.078;2023-07-30T04:24:35;99888.06;;;21.83;100.00
62124;BME280;48110;47.532;19.078;2023-07-30T04:27:40;99898.84;;;21.83;100.00
62124;BME280;48110;47.532;19.078;2023-07-30T04:30:43;99898.59;;;21.84;100.00
62124;BME280;48110;47.532;19.078;2023-07-30T04:33:46;99903.38;;;21.77;100.00
62124;BME280;48110;47.532;19.078;2023-07-30T04:36:51;99901.09;;;21.91;100.00
62124;BME280;48110;47.532;19.078;2023-07-30T04:39:54;99895.69;;;21.91;100.00
62124;BME280;48110;47.532;19.078;2023-07-30T04:42:58;99905.81;;;22.00;100.00
62124;BME280;48110;47.532;19.078;2023-07-30T04:46:01;99897.78;;;22.05;100.00
62124;BME280;48110;47.532;19.078;2023-07-30T04:49:04;99909.41;;;22.06;100.00
62124;BME280;48110;47.532;19.078;2023-07-30T04:52:07;99899.03;;;21.98;100.00
62124;BME280;48110;47.532;19.078;2023-07-30T04:55:10;99903.47;;;22.09;100.00
62124;BME280;48110;47.532;19.078;2023-07-30T04:58:13;99905.41;;;22.14;100.00
62124;BME280;48110;47.532;19.078;2023-07-30T05:01:16;99906.00;;;22.16;100.00
62124;BME280;48110;47.532;19.078;2023-07-30T05:04:19;99915.84;;;22.27;100.00
62124;BME280;48110;47.532;19.078;2023-07-30T05:07:21;99918.97;;;22.19;100.00
62124;BME280;48110;47.532;19.078;2023-07-30T05:10:24;99917.34;;;22.18;100.00
62124;BME280;48110;47.532;19.078;2023-07-30T05:13:27;99922.09;;;22.32;100.00
62124;BME280;48110;47.532;19.078;2023-07-30T05:16:29;99921.25;;;22.32;100.00
62124;BME280;48110;47.532;19.078;2023-07-30T05:19:32;99916.53;;;22.44;100.00
62124;BME280;48110;47.532;19.078;2023-07-30T05:22:35;99916.38;;;22.56;100.00
62124;BME280;48110;47.532;19.078;2023-07-30T05:25:38;99913.47;;;22.35;100.00
62124;BME280;48110;47.532;19.078;2023-07-30T05:28:40;99917.06;;;22.41;100.00
62124;BME280;48110;47.532;19.078;2023-07-30T05:31:43;99929.69;;;22.67;100.00
62124;BME280;48110;47.532;19.078;2023-07-30T05:34:46;99920.09;;;22.81;100.00
62124;BME280;48110;47.532;19.078;2023-07-30T05:37:49;99922.03;;;22.86;100.00
62124;BME280;48110;47.532;19.078;2023-07-30T05:40:52;99917.81;;;22.68;100.00
62124;BME280;48110;47.532;19.078;2023-07-30T05:43:54;99920.62;;;22.78;100.00
62124;BME280;48110;47.532;19.078;2023-07-30T05:46:57;99907.81;;;22.69;100.00
62124;BME280;48110;47.532;19.078;2023-07-30T05:50:01;99912.41;;;22.68;100.00
62124;BME280;48110;47.532;19.078;2023-07-30T05:53:04;99919.09;;;22.87;100.00
62124;BME280;48110;47.532;19.078;2023-07-30T05:56:07;99916.97;;;22.94;100.00
62124;BME280;48110;47.532;19.078;2023-07-30T05:59:09;99923.94;;;22.85;100.00
62124;BME280;48110;47.532;19.078;2023-07-30T06:02:12;99919.44;;;23.01;100.00
62124;BME280;48110;47.532;19.078;2023-07-30T06:05:15;99916.97;;;22.94;100.00
62124;BME280;48110;47.532;19.078;2023-07-30T06:08:18;99918.25;;;22.87;100.00
62124;BME280;48110;47.532;19.078;2023-07-30T06:11:21;99917.72;;;23.27;100.00
62124;BME280;48110;47.532;19.078;2023-07-30T06:14:25;99924.72;;;23.18;100.00
62124;BME280;48110;47.532;19.078;2023-07-30T06:17:28;99916.09;;;23.26;100.00
62124;BME280;48110;47.532;19.078;2023-07-30T06:20:34;99926.34;;;23.24;100.00
62124;BME280;48110;47.532;19.078;2023-07-30T06:23:37;99923.34;;;23.57;100.00
62124;BME280;48110;47.532;19.078;2023-07-30T06:26:39;99923.72;;;23.86;100.00
62124;BME280;48110;47.532;19.078;2023-07-30T06:29:42;99929.12;;;23.86;100.00
62124;BME280;48110;47.532;19.078;2023-07-30T06:32:45;99920.53;;;24.04;100.00
62124;BME280;48110;47.532;19.078;2023-07-30T06:35:48;99922.91;;;23.86;100.00
62124;BME280;48110;47.532;19.078;2023-07-30T06:38:51;99924.56;;;24.07;100.00
62124;BME280;48110;47.532;19.078;2023-07-30T06:41:54;99926.84;;;24.55;100.00
62124;BME280;48110;47.532;19.078;2023-07-30T06:44:57;99925.78;;;24.77;100.00
62124;BME280;48110;47.532;19.078;2023-07-30T06:48:00;99918.75;;;25.06;99.05
62124;BME280;48110;47.532;19.078;2023-07-30T06:51:06;99926.28;;;25.34;93.75
62124;BME280;48110;47.532;19.078;2023-07-30T06:54:10;99929.22;;;25.58;92.23
62124;BME280;48110;47.532;19.078;2023-07-30T06:57:12;99924.16;;;25.06;95.07
62124;BME280;48110;47.532;19.078;2023-07-30T07:00:15;99923.34;;;25.05;95.05
62124;BME280;48110;47.532;19.078;2023-07-30T07:03:24;99925.22;;;25.30;89.17
62124;BME280;48110;47.532;19.078;2023-07-30T07:06:27;99921.47;;;24.96;90.93
62124;BME280;48110;47.532;19.078;2023-07-30T07:09:30;99923.06;;;24.72;94.36
62124;BME280;48110;47.532;19.078;2023-07-30T07:12:33;99920.31;;;24.26;100.00
62124;BME280;48110;47.532;19.078;2023-07-30T07:15:35;99924.56;;;24.07;100.00
62124;BME280;48110;47.532;19.078;2023-07-30T07:18:38;99935.88;;;23.83;100.00
62124;BME280;48110;47.532;19.078;2023-07-30T07:21:41;99950.00;;;23.91;100.00
62124;BME280;48110;47.532;19.078;2023-07-30T07:24:45;99960.50;;;23.77;100.00
62124;BME280;48110;47.532;19.078;2023-07-30T07:27:48;99968.44;;;23.94;100.00
62124;BME280;48110;47.532;19.078;2023-07-30T07:30:51;99964.84;;;23.78;100.00
62124;BME280;48110;47.532;19.078;2023-07-30T07:33:53;99974.38;;;23.44;100.00
62124;BME280;48110;47.532;19.078;2023-07-30T07:36:57;99982.59;;;22.80;100.00
62124;BME280;48110;47.532;19.078;2023-07-30T07:39:59;99986.22;;;22.15;100.00
62124;BME280;48110;47.532;19.078;2023-07-30T07:43:02;99982.44;;;21.34;100.00
62124;BME280;48110;47.532;19.078;2023-07-30T07:46:05;99988.88;;;20.83;100.00
62124;BME280;48110;47.532;19.078;2023-07-30T07:49:13;99998.75;;;20.77;100.00
62124;BME280;48110;47.532;19.078;2023-07-30T07:52:15;99992.87;;;20.80;100.00
62124;BME280;48110;47.532;19.078;2023-07-30T07:55:18;100000.66;;;20.94;100.00
62124;BME280;48110;47.532;19.078;2023-07-30T07:58:21;100010.06;;;20.91;100.00
62124;BME280;48110;47.532;19.078;2023-07-30T08:01:25;100005.88;;;20.83;100.00
62124;BME280;48110;47.532;19.078;2023-07-30T08:04:28;100001.53;;;20.66;100.00
62124;BME280;48110;47.532;19.078;2023-07-30T08:07:31;100012.53;;;20.64;100.00
62124;BME280;48110;47.532;19.078;2023-07-30T08:10:38;100016.28;;;20.63;100.00
62124;BME280;48110;47.532;19.078;2023-07-30T08:13:42;100029.00;;;20.51;100.00
62124;BME280;48110;47.532;19.078;2023-07-30T08:16:45;100024.78;;;20.55;100.00
62124;BME280;48110;47.532;19.078;2023-07-30T08:19:48;100022.91;;;20.56;100.00
62124;BME280;48110;47.532;19.078;2023-07-30T08:22:50;100026.50;;;20.61;100.00
62124;BME280;48110;47.532;19.078;2023-07-30T08:25:53;100033.78;;;20.61;100.00
62124;BME280;48110;47.532;19.078;2023-07-30T08:28:56;100019.59;;;20.37;100.00
62124;BME280;48110;47.532;19.078;2023-07-30T08:31:59;100032.50;;;20.12;100.00
62124;BME280;48110;47.532;19.078;2023-07-30T08:35:03;100037.91;;;20.00;100.00
62124;BME280;48110;47.532;19.078;2023-07-30T08:38:05;100042.75;;;19.86;100.00
62124;BME280;48110;47.532;19.078;2023-07-30T08:41:08;100030.69;;;19.66;100.00
62124;BME280;48110;47.532;19.078;2023-07-30T08:44:12;100040.78;;;19.59;100.00
62124;BME280;48110;47.532;19.078;2023-07-30T08:47:15;100043.34;;;19.53;100.00
62124;BME280;48110;47.532;19.078;2023-07-30T08:50:17;100046.16;;;19.59;100.00
62124;BME280;48110;47.532;19.078;2023-07-30T08:53:20;100041.34;;;19.61;100.00
62124;BME280;48110;47.532;19.078;2023-07-30T08:56:23;100039.84;;;19.53;100.00
62124;BME280;48110;47.532;19.078;2023-07-30T08:59:27;100040.78;;;19.47;100.00
62124;BME280;48110;47.532;19.078;2023-07-30T09:02:44;100026.87;;;19.50;100.00
62124;BME280;48110;47.532;19.078;2023-07-30T09:05:50;100045.81;;;19.55;100.00
62124;BME280;48110;47.532;19.078;2023-07-30T09:08:53;100031.78;;;19.65;100.00
62124;BME280;48110;47.532;19.078;2023-07-30T09:11:56;100031.41;;;19.73;100.00
62124;BME280;48110;47.532;19.078;2023-07-30T09:14:59;100029.53;;;19.73;100.00
62124;BME280;48110;47.532;19.078;2023-07-30T09:18:03;100040.06;;;19.63;100.00
62124;BME280;48110;47.532;19.078;2023-07-30T09:21:07;100035.03;;;19.67;100.00
62124;BME280;48110;47.532;19.078;2023-07-30T09:24:10;100036.44;;;19.81;100.00
62124;BME280;48110;47.532;19.078;2023-07-30T09:27:13;100026.91;;;20.02;100.00
62124;BME280;48110;47.532;19.078;2023-07-30T09:30:22;100038.78;;;19.89;100.00
62124;BME280;48110;47.532;19.078;2023-07-30T09:33:26;100035.72;;;19.85;100.00
62124;BME280;48110;47.532;19.078;2023-07-30T09:36:30;100023.19;;;19.91;100.00
62124;BME280;48110;47.532;19.078;2023-07-30T09:39:33;100020.47;;;20.03;100.00
62124;BME280;48110;47.532;19.078;2023-07-30T09:42:44;100032.63;;;20.17;100.00
62124;BME280;48110;47.532;19.078;2023-07-30T09:45:47;100032.34;;;20.42;100.00
62124;BME280;48110;47.532;19.078;2023-07-30T09:48:50;100033.00;;;20.49;100.00
62124;BME280;48110;47.532;19.078;2023-07-30T09:51:53;100032.53;;;20.52;100.00
62124;BME280;48110;47.532;19.078;2023-07-30T09:54:57;100031.03;;;20.44;100.00
62124;BME280;48110;47.532;19.078;2023-07-30T09:58:01;100023.66;;;20.39;100.00
62124;BME280;48110;47.532;19.078;2023-07-30T10:01:04;100025.91;;;20.43;100.00
62124;BME280;48110;47.532;19.078;2023-07-30T10:04:09;100020.31;;;20.09;100.00
62124;BME280;48110;47.532;19.078;2023-07-30T10:07:16;100021.50;;;20.13;100.00
62124;BME280;48110;47.532;19.078;2023-07-30T10:10:24;100034.59;;;20.21;100.00
62124;BME280;48110;47.532;19.078;2023-07-30T10:13:27;100039.25;;;20.26;100.00
62124;BME280;48110;47.532;19.078;2023-07-30T10:16:31;100030.84;;;20.22;100.00
62124;BME280;48110;47.532;19.078;2023-07-30T10:19:34;100028.81;;;20.41;100.00
62124;BME280;48110;47.532;19.078;2023-07-30T10:22:39;100021.47;;;20.36;100.00
62124;BME280;48110;47.532;19.078;2023-07-30T10:25:52;100034.81;;;20.31;100.00
62124;BME280;48110;47.532;19.078;2023-07-30T10:29:16;100039.16;;;20.32;100.00
62124;BME280;48110;47.532;19.078;2023-07-30T10:32:19;100032.66;;;20.45;100.00
62124;BME280;48110;47.532;19.078;2023-07-30T10:38:43;100029.66;;;20.58;100.00
62124;BME280;48110;47.532;19.078;2023-07-30T10:41:49;100031.13;;;20.49;100.00
62124;BME280;48110;47.532;19.078;2023-07-30T10:44:51;100033.28;;;20.35;100.00
62124;BME280;48110;47.532;19.078;2023-07-30T10:48:03;100026.44;;;20.45;100.00
62124;BME280;48110;47.532;19.078;2023-07-30T10:51:13;100027.91;;;20.35;100.00
62124;BME280;48110;47.532;19.078;2023-07-30T10:54:17;100027.91;;;20.24;100.00
62124;BME280;48110;47.532;19.078;2023-07-30T10:57:19;100008.44;;;20.33;100.00
62124;BME280;48110;47.532;19.078;2023-07-30T11:00:22;100018.34;;;20.56;100.00
62124;BME280;48110;47.532;19.078;2023-07-30T11:03:25;100009.94;;;20.69;100.00
62124;BME280;48110;47.532;19.078;2023-07-30T11:06:29;100017.09;;;20.64;100.00
62124;BME280;48110;47.532;19.078;2023-07-30T11:09:32;100008.00;;;20.53;100.00
62124;BME280;48110;47.532;19.078;2023-07-30T11:12:35;100002.87;;;20.52;100.00
62124;BME280;48110;47.532;19.078;2023-07-30T11:15:44;100007.34;;;20.91;100.00
62124;BME280;48110;47.532;19.078;2023-07-30T11:18:47;100005.09;;;21.16;100.00
62124;BME280;48110;47.532;19.078;2023-07-30T11:21:53;100009.53;;;21.11;100.00
62124;BME280;48110;47.532;19.078;2023-07-30T11:24:56;100001.62;;;20.88;100.00
62124;BME280;48110;47.532;19.078;2023-07-30T11:27:59;100012.25;;;20.94;100.00
62124;BME280;48110;47.532;19.078;2023-07-30T11:31:06;100013.22;;;20.88;100.00
62124;BME280;48110;47.532;19.078;2023-07-30T11:34:10;100011.25;;;20.83;100.00
62124;BME280;48110;47.532;19.078;2023-07-30T11:37:13;100018.84;;;20.87;100.00
62124;BME280;48110;47.532;19.078;2023-07-30T11:40:16;100023.66;;;20.68;100.00
62124;BME280;48110;47.532;19.078;2023-07-30T11:43:22;100030.84;;;20.79;100.00
62124;BME280;48110;47.532;19.078;2023-07-30T11:46:25;100021.88;;;20.73;100.00
62124;BME280;48110;47.532;19.078;2023-07-30T11:49:28;100020.13;;;20.67;100.00
62124;BME280;48110;47.532;19.078;2023-07-30T11:52:31;100014.84;;;21.06;100.00
62124;BME280;48110;47.532;19.078;2023-07-30T11:55:38;100006.59;;;21.46;100.00
62124;BME280;48110;47.532;19.078;2023-07-30T11:58:41;100011.00;;;21.90;100.00
62124;BME280;48110;47.532;19.078;2023-07-30T12:01:44;100013.06;;;22.22;100.00
62124;BME280;48110;47.532;19.078;2023-07-30T12:04:47;100012.53;;;22.25;100.00
62124;BME280;48110;47.532;19.078;2023-07-30T12:08:13;100009.00;;;22.46;100.00
62124;BME280;48110;47.532;19.078;2023-07-30T12:11:18;100012.66;;;22.62;100.00
62124;BME280;48110;47.532;19.078;2023-07-30T12:14:26;100010.19;;;22.55;100.00
62124;BME280;48110;47.532;19.078;2023-07-30T12:17:33;100017.88;;;22.68;100.00
62124;BME280;48110;47.532;19.078;2023-07-30T12:20:36;100019.41;;;22.59;100.00
62124;BME280;48110;47.532;19.078;2023-07-30T12:23:38;100002.19;;;22.43;100.00
62124;BME280;48110;47.532;19.078;2023-07-30T12:26:41;100010.19;;;22.55;100.00
62124;BME280;48110;47.532;19.078;2023-07-30T12:29:44;100012.59;;;22.30;100.00
62124;BME280;48110;47.532;19.078;2023-07-30T12:32:47;100010.44;;;21.88;100.00
62124;BME280;48110;47.532;19.078;2023-07-30T12:35:50;100010.56;;;21.77;100.00
62124;BME280;48110;47.532;19.078;2023-07-30T12:38:52;100006.28;;;21.97;100.00
62124;BME280;48110;47.532;19.078;2023-07-30T12:41:56;100014.13;;;21.99;100.00
62124;BME280;48110;47.532;19.078;2023-07-30T12:44:59;100004.19;;;21.44;100.00
62124;BME280;48110;47.532;19.078;2023-07-30T12:48:02;99993.66;;;21.64;100.00
62124;BME280;48110;47.532;19.078;2023-07-30T12:51:05;99979.00;;;21.39;100.00
62124;BME280;48110;47.532;19.078;2023-07-30T12:54:08;99985.63;;;20.81;100.00
62124;BME280;48110;47.532;19.078;2023-07-30T12:57:10;99976.63;;;20.92;100.00
62124;BME280;48110;47.532;19.078;2023-07-30T13:00:14;99975.97;;;20.85;100.00
62124;BME280;48110;47.532;19.078;2023-07-30T13:03:17;99964.91;;;20.87;100.00
62124;BME280;48110;47.532;19.078;2023-07-30T13:06:20;99967.81;;;21.13;100.00
62124;BME280;48110;47.532;19.078;2023-07-30T13:09:23;99962.75;;;21.17;100.00
62124;BME280;48110;47.532;19.078;2023-07-30T13:12:26;99963.22;;;21.31;100.00
62124;BME280;48110;47.532;19.078;2023-07-30T13:15:28;99961.81;;;21.11;100.00
62124;BME280;48110;47.532;19.078;2023-07-30T13:18:32;99941.84;;;21.46;100.00
62124;BME280;48110;47.532;19.078;2023-07-30T13:21:34;99943.00;;;21.72;100.00
62124;BME280;48110;47.532;19.078;2023-07-30T13:24:37;99945.47;;;21.95;100.00
62124;BME280;48110;47.532;19.078;2023-07-30T13:27:40;99933.97;;;22.04;100.00
62124;BME280;48110;47.532;19.078;2023-07-30T13:30:43;99935.19;;;22.45;100.00
62124;BME280;48110;47.532;19.078;2023-07-30T13:33:45;99924.16;;;22.52;100.00
62124;BME280;48110;47.532;19.078;2023-07-30T13:36:50;99922.97;;;23.02;100.00
62124;BME280;48110;47.532;19.078;2023-07-30T13:39:52;99915.41;;;23.46;100.00
62124;BME280;48110;47.532;19.078;2023-07-30T13:42:55;99918.19;;;23.61;100.00
62124;BME280;48110;47.532;19.078;2023-07-30T13:45:58;99915.63;;;24.01;100.00
62124;BME280;48110;47.532;19.078;2023-07-30T13:49:01;99910.41;;;23.27;100.00
62124;BME280;48110;47.532;19.078;2023-07-30T13:52:04;99911.66;;;23.10;100.00
62124;BME280;48110;47.532;19.078;2023-07-30T13:55:08;99901.28;;;24.06;100.00
62124;BME280;48110;47.532;19.078;2023-07-30T13:58:10;99904.34;;;27.31;100.00
62124;BME280;48110;47.532;19.078;2023-07-30T14:01:13;99897.34;;;28.47;100.00
62124;BME280;48110;47.532;19.078;2023-07-30T14:04:18;99900.16;;;30.52;78.30
62124;BME280;48110;47.532;19.078;2023-07-30T14:07:20;99900.38;;;28.97;78.31
62124;BME280;48110;47.532;19.078;2023-07-30T14:10:23;99895.06;;;31.12;65.82
62124;BME280;48110;47.532;19.078;2023-07-30T14:13:26;99893.56;;;34.14;53.32
62124;BME280;48110;47.532;19.078;2023-07-30T14:16:33;99888.06;;;35.98;46.32
62124;BME280;48110;47.532;19.078;2023-07-30T14:19:36;99885.59;;;35.81;45.22
62124;BME280;48110;47.532;19.078;2023-07-30T14:22:39;99886.69;;;34.62;46.48
62124;BME280;48110;47.532;19.078;2023-07-30T14:25:42;99880.16;;;31.83;53.50
62124;BME280;48110;47.532;19.078;2023-07-30T14:28:44;99885.16;;;33.90;48.38
62124;BME280;48110;47.532;19.078;2023-07-30T14:31:47;99887.78;;;35.26;46.45
62124;BME280;48110;47.532;19.078;2023-07-30T14:34:50;99876.56;;;29.43;65.65
62124;BME280;48110;47.532;19.078;2023-07-30T14:37:52;99868.00;;;27.40;81.94
62124;BME280;48110;47.532;19.078;2023-07-30T14:40:55;99870.34;;;26.70;99.06
62124;BME280;48110;47.532;19.078;2023-07-30T14:43:58;99865.81;;;25.78;100.00
62124;BME280;48110;47.532;19.078;2023-07-30T14:47:01;99861.88;;;26.04;100.00
62124;BME280;48110;47.532;19.078;2023-07-30T14:50:06;99855.47;;;25.85;100.00
62124;BME280;48110;47.532;19.078;2023-07-30T14:53:10;99856.97;;;25.47;100.00
62124;BME280;48110;47.532;19.078;2023-07-30T14:56:12;99862.56;;;24.96;100.00
62124;BME280;48110;47.532;19.078;2023-07-30T14:59:15;99854.25;;;25.47;100.00
62124;BME280;48110;47.532;19.078;2023-07-30T15:02:18;99843.69;;;25.45;100.00
62124;BME280;48110;47.532;19.078;2023-07-30T15:05:21;99848.22;;;25.70;100.00
62124;BME280;48110;47.532;19.078;2023-07-30T15:08:24;99846.03;;;24.88;100.00
62124;BME280;48110;47.532;19.078;2023-07-30T15:11:27;99836.47;;;25.16;100.00
62124;BME280;48110;47.532;19.078;2023-07-30T15:14:29;99840.63;;;25.62;100.00
62124;BME280;48110;47.532;19.078;2023-07-30T15:17:34;99833.87;;;26.04;100.00
62124;BME280;48110;47.532;19.078;2023-07-30T15:20:36;99828.44;;;26.43;98.51
62124;BME280;48110;47.532;19.078;2023-07-30T15:23:42;99817.69;;;26.85;93.45
62124;BME280;48110;47.532;19.078;2023-07-30T15:26:46;99822.31;;;28.63;77.44
62124;BME280;48110;47.532;19.078;2023-07-30T15:29:49;99811.75;;;28.43;78.73
62124;BME280;48110;47.532;19.078;2023-07-30T15:32:52;99806.06;;;28.26;82.12
62124;BME280;48110;47.532;19.078;2023-07-30T15:35:55;99810.19;;;27.01;90.58
62124;BME280;48110;47.532;19.078;2023-07-30T15:38:58;99799.44;;;26.91;88.56
62124;BME280;48110;47.532;19.078;2023-07-30T15:42:02;99801.69;;;25.77;100.00
62124;BME280;48110;47.532;19.078;2023-07-30T15:45:08;99805.25;;;25.13;100.00
62124;BME280;48110;47.532;19.078;2023-07-30T15:48:12;99810.22;;;24.65;100.00